createdAt,value
2023-05-05T00:03:35.993Z,10.30
2023-05-05T00:07:37.978Z,10.00
2023-05-05T00:11:39.925Z,10.00
2023-05-05T00:15:43.274Z,10.00
2023-05-05T00:19:45.303Z,10.00
2023-05-05T00:23:47.290Z,10.00
2023-05-05T00:27:49.288Z,9.70
2023-05-05T00:31:52.813Z,9.60
2023-05-05T00:35:55.083Z,9.60
2023-05-05T00:39:57.037Z,9.70
2023-05-05T00:43:59.163Z,9.70
2023-05-05T00:48:01.754Z,9.80
2023-05-05T00:52:05.034Z,9.70
2023-05-05T00:56:07.125Z,9.70
2023-05-05T01:00:11.159Z,9.70
2023-05-05T01:04:12.903Z,9.70
2023-05-05T01:08:23.325Z,9.70
2023-05-05T01:12:37.581Z,9.60
2023-05-05T01:16:43.837Z,9.40
2023-05-05T01:21:06.753Z,9.30
2023-05-05T01:25:11.947Z,9.20
2023-05-05T01:29:47.874Z,9.30
2023-05-05T01:33:58.189Z,9.30
2023-05-05T01:38:12.003Z,9.40
2023-05-05T01:42:18.446Z,9.40
2023-05-05T01:46:23.671Z,9.30
2023-05-05T01:50:28.641Z,9.20
2023-05-05T01:54:33.487Z,9.00
2023-05-05T01:58:37.586Z,9.00
2023-05-05T02:02:40.700Z,9.00
2023-05-05T02:06:44.383Z,8.90
2023-05-05T02:10:48.320Z,8.90
2023-05-05T02:14:52.263Z,9.00
2023-05-05T02:18:55.408Z,9.00
2023-05-05T02:22:58.161Z,9.00
2023-05-05T02:27:03.679Z,9.00
2023-05-05T02:31:07.374Z,8.90
2023-05-05T02:35:15.191Z,8.80
2023-05-05T02:39:30.652Z,9.00
2023-05-05T02:43:35.081Z,8.80
2023-05-05T02:47:38.124Z,8.80
2023-05-05T02:51:41.320Z,9.00
2023-05-05T02:56:26.728Z,8.80
2023-05-05T03:00:47.449Z,8.70
2023-05-05T03:04:55.212Z,8.90
2023-05-05T03:09:13.190Z,8.90
2023-05-05T03:13:20.117Z,8.90
2023-05-05T03:17:24.383Z,8.90
2023-05-05T03:21:27.586Z,8.80
2023-05-05T03:25:47.170Z,8.80
2023-05-05T03:30:12.075Z,8.80
2023-05-05T03:34:21.658Z,8.80
2023-05-05T03:38:24.170Z,8.60
2023-05-05T03:42:26.107Z,8.30
2023-05-05T03:46:28.863Z,8.30
2023-05-05T03:50:31.180Z,8.30
2023-05-05T03:54:33.415Z,8.40
2023-05-05T03:58:35.572Z,8.40
2023-05-05T04:02:38.043Z,8.60
2023-05-05T04:06:40.411Z,8.70
2023-05-05T04:10:42.952Z,8.60
2023-05-05T04:14:45.595Z,8.60
2023-05-05T04:18:48.949Z,8.60
2023-05-05T04:22:52.718Z,8.50
2023-05-05T04:26:56.401Z,8.50
2023-05-05T04:31:01.028Z,8.50
2023-05-05T04:35:06.151Z,8.60
2023-05-05T04:39:08.688Z,8.80
2023-05-05T04:43:11.320Z,9.00
2023-05-05T04:47:14.784Z,9.00
2023-05-05T04:51:17.965Z,8.80
2023-05-05T04:55:20.890Z,8.90
2023-05-05T04:59:22.862Z,8.90
2023-05-05T05:03:25.128Z,8.60
2023-05-05T05:07:27.202Z,8.80
2023-05-05T05:11:29.328Z,8.90
2023-05-05T05:15:31.136Z,9.20
2023-05-05T05:19:33.193Z,9.40
2023-05-05T05:23:35.542Z,9.60
2023-05-05T05:27:37.856Z,9.80
2023-05-05T05:31:40.063Z,10.10
2023-05-05T05:35:42.507Z,10.30
2023-05-05T05:39:52.196Z,10.20
2023-05-05T05:43:55.685Z,10.40
2023-05-05T05:47:58.236Z,10.50
2023-05-05T05:52:00.494Z,10.70
2023-05-05T05:56:02.854Z,10.70
2023-05-05T06:00:06.280Z,11.00
2023-05-05T06:04:13.638Z,10.90
2023-05-05T06:08:16.119Z,10.70
2023-05-05T06:12:22.571Z,10.90
2023-05-05T06:16:24.653Z,10.90
2023-05-05T06:20:26.812Z,11.00
2023-05-05T06:24:29.424Z,11.30
2023-05-05T06:28:31.787Z,11.40
2023-05-05T06:32:33.885Z,11.70
2023-05-05T06:36:36.098Z,11.80
2023-05-05T06:40:38.163Z,11.90
2023-05-05T06:44:40.231Z,12.00
2023-05-05T06:48:42.353Z,12.20
2023-05-05T06:52:44.434Z,12.40
2023-05-05T06:56:46.682Z,12.60
2023-05-05T07:00:48.615Z,12.80
2023-05-05T07:04:51.016Z,13.00
2023-05-05T07:08:52.918Z,13.10
2023-05-05T07:12:54.987Z,13.30
2023-05-05T07:16:57.015Z,13.40
2023-05-05T07:20:59.037Z,13.40
2023-05-05T07:25:00.958Z,13.60
2023-05-05T07:29:05.628Z,13.60
2023-05-05T07:33:08.330Z,13.90
2023-05-05T07:37:10.357Z,14.00
2023-05-05T07:41:13.084Z,14.20
2023-05-05T07:45:14.975Z,14.50
2023-05-05T07:49:17.614Z,14.70
2023-05-05T07:53:19.861Z,14.90
2023-05-05T07:57:21.769Z,15.00
2023-05-05T08:01:23.741Z,15.10
2023-05-05T08:05:25.863Z,15.20
2023-05-05T08:09:27.682Z,15.20
2023-05-05T08:13:30.376Z,15.70
2023-05-05T08:17:47.963Z,15.60
2023-05-05T08:21:50.391Z,15.30
2023-05-05T08:25:52.394Z,15.40
2023-05-05T08:29:54.411Z,15.60
2023-05-05T08:33:56.646Z,15.50
2023-05-05T08:37:59.249Z,15.60
2023-05-05T08:42:02.561Z,15.60
2023-05-05T08:46:05.178Z,15.80
2023-05-05T08:50:10.448Z,15.60
2023-05-05T08:54:19.832Z,15.40
2023-05-05T08:58:23.609Z,15.80
2023-05-05T09:02:29.924Z,15.40
2023-05-05T09:06:33.757Z,14.90
2023-05-05T09:10:36.734Z,15.70
2023-05-05T09:14:38.681Z,16.10
2023-05-05T09:18:42.533Z,16.50
2023-05-05T09:22:46.734Z,16.70
2023-05-05T09:26:48.787Z,16.20
2023-05-05T09:30:51.007Z,16.10
2023-05-05T09:35:01.057Z,16.30
2023-05-05T09:39:07.328Z,15.90
2023-05-05T09:43:09.298Z,15.80
2023-05-05T09:47:26.104Z,15.20
2023-05-05T09:51:31.786Z,15.50
2023-05-05T09:55:35.978Z,15.40
2023-05-05T09:59:39.009Z,15.30
2023-05-05T10:03:52.940Z,15.70
2023-05-05T10:07:54.855Z,15.80
2023-05-05T10:11:59.666Z,15.50
2023-05-05T10:16:03.670Z,15.20
2023-05-05T10:20:09.969Z,15.30
2023-05-05T10:24:52.840Z,15.10
2023-05-05T10:28:56.312Z,15.10
2023-05-05T10:33:30.357Z,15.00
2023-05-05T10:37:37.105Z,14.70
2023-05-05T10:41:39.228Z,15.40
2023-05-05T10:45:43.110Z,15.90
2023-05-05T10:49:53.997Z,16.20
2023-05-05T10:54:24.613Z,15.80
2023-05-05T10:58:46.882Z,15.70
2023-05-05T11:03:16.703Z,15.70
2023-05-05T11:07:22.997Z,16.30
2023-05-05T11:12:03.461Z,15.80
2023-05-05T11:16:06.350Z,15.50
2023-05-05T11:20:09.475Z,16.40
2023-05-05T11:24:29.134Z,16.30
2023-05-05T11:28:31.697Z,16.30
2023-05-05T11:32:34.072Z,16.20
2023-05-05T11:36:40.904Z,15.60
2023-05-05T11:40:45.626Z,15.80
2023-05-05T11:44:47.880Z,15.80
2023-05-05T11:48:53.750Z,16.40
2023-05-05T11:52:55.823Z,15.20
2023-05-05T11:56:59.128Z,16.80
2023-05-05T12:01:04.585Z,16.20
2023-05-05T12:05:07.018Z,16.30
2023-05-05T12:09:20.075Z,17.50
2023-05-05T12:13:21.980Z,17.20
2023-05-05T12:17:24.232Z,17.80
2023-05-05T12:21:26.306Z,18.00
2023-05-05T12:25:36.876Z,18.70
2023-05-05T12:29:39.130Z,18.60
2023-05-05T12:33:42.290Z,17.00
2023-05-05T12:37:44.744Z,17.60
2023-05-05T12:41:47.244Z,17.00
2023-05-05T12:45:58.770Z,16.70
2023-05-05T12:50:03.274Z,18.20
2023-05-05T12:54:12.544Z,18.60
2023-05-05T12:58:14.323Z,18.80
2023-05-05T13:02:16.915Z,19.40
2023-05-05T13:06:24.437Z,19.20
2023-05-05T13:10:28.091Z,19.40
2023-05-05T13:14:33.764Z,19.60
2023-05-05T13:18:49.291Z,19.60
2023-05-05T13:22:51.327Z,19.50
2023-05-05T13:26:53.396Z,18.60
2023-05-05T13:30:56.076Z,19.40
2023-05-05T13:34:58.189Z,19.20
2023-05-05T13:39:00.592Z,19.40
2023-05-05T13:43:02.752Z,19.70
2023-05-05T13:47:04.898Z,19.90
2023-05-05T13:51:07.052Z,19.20
2023-05-05T13:55:09.708Z,19.70
2023-05-05T13:59:11.891Z,19.90
2023-05-05T14:03:14.078Z,19.90
2023-05-05T14:07:16.199Z,20.00
2023-05-05T14:11:18.353Z,20.00
2023-05-05T14:15:20.416Z,19.90
2023-05-05T14:19:22.186Z,19.70
2023-05-05T14:23:24.248Z,19.40
2023-05-05T14:27:26.355Z,19.70
2023-05-05T14:31:28.678Z,19.80
2023-05-05T14:35:31.414Z,19.20
2023-05-05T14:39:33.600Z,18.60
2023-05-05T14:43:36.776Z,19.10
2023-05-05T14:47:38.736Z,19.10
2023-05-05T14:51:41.644Z,18.80
2023-05-05T14:55:44.470Z,17.40
2023-05-05T14:59:46.338Z,18.00
2023-05-05T15:03:48.369Z,18.10
2023-05-05T15:07:50.473Z,17.20
2023-05-05T15:11:52.468Z,17.20
2023-05-05T15:15:54.265Z,16.80
2023-05-05T15:19:56.083Z,18.10
2023-05-05T15:23:58.237Z,18.50
2023-05-05T15:28:00.913Z,18.80
2023-05-05T15:32:03.165Z,18.80
2023-05-05T15:36:05.594Z,18.70
2023-05-05T15:40:08.290Z,18.60
2023-05-05T15:44:12.279Z,18.30
2023-05-05T15:48:14.387Z,18.20
2023-05-05T15:52:16.862Z,17.70
2023-05-05T15:56:19.147Z,15.40
2023-05-05T16:00:21.384Z,15.90
2023-05-05T16:04:23.321Z,16.90
2023-05-05T16:08:25.305Z,17.30
2023-05-05T16:12:27.655Z,17.40
2023-05-05T16:16:29.691Z,17.00
2023-05-05T16:20:31.588Z,16.80
2023-05-05T16:24:33.819Z,17.00
2023-05-05T16:28:36.005Z,17.00
2023-05-05T16:32:38.150Z,17.10
2023-05-05T16:36:41.583Z,17.10
2023-05-05T16:40:44.910Z,16.20
2023-05-05T16:44:47.089Z,15.70
2023-05-05T16:48:48.990Z,16.00
2023-05-05T16:52:51.363Z,16.30
2023-05-05T16:56:53.745Z,15.90
2023-05-05T17:00:55.573Z,16.20
2023-05-05T17:04:57.435Z,16.30
2023-05-05T17:08:59.769Z,16.40
2023-05-05T17:13:01.745Z,16.30
2023-05-05T17:17:04.046Z,16.30
2023-05-05T17:21:06.301Z,16.40
2023-05-05T17:25:09.017Z,16.20
2023-05-05T17:29:12.959Z,15.20
2023-05-05T17:33:18.306Z,15.30
2023-05-05T17:37:20.376Z,15.00
2023-05-05T17:41:22.564Z,14.40
2023-05-05T17:45:24.680Z,13.10
2023-05-05T17:49:26.650Z,12.20
2023-05-05T17:53:28.607Z,11.70
2023-05-05T17:57:30.568Z,12.00
2023-05-05T18:01:32.531Z,12.20
2023-05-05T18:05:35.269Z,11.80
2023-05-05T18:09:37.134Z,11.80
2023-05-05T18:13:39.473Z,11.40
2023-05-05T18:17:41.633Z,11.50
2023-05-05T18:21:43.701Z,11.90
2023-05-05T18:25:46.425Z,12.00
2023-05-05T18:29:48.674Z,12.00
2023-05-05T18:33:51.018Z,12.50
2023-05-05T18:37:54.417Z,12.80
2023-05-05T18:41:56.609Z,13.10
2023-05-05T18:45:58.632Z,13.30
2023-05-05T18:50:00.709Z,13.10
2023-05-05T18:54:03.018Z,13.20
2023-05-05T18:58:04.930Z,12.20
2023-05-05T19:02:07.844Z,12.30
2023-05-05T19:06:10.063Z,12.60
2023-05-05T19:10:12.009Z,12.20
2023-05-05T19:14:14.211Z,11.70
2023-05-05T19:18:16.374Z,12.20
2023-05-05T19:22:18.972Z,12.10
2023-05-05T19:26:21.750Z,12.70
2023-05-05T19:30:24.123Z,13.00
2023-05-05T19:34:26.459Z,13.30
2023-05-05T19:38:29.196Z,13.50
2023-05-05T19:42:31.189Z,12.90
2023-05-05T19:46:33.318Z,13.20
2023-05-05T19:50:35.617Z,13.20
2023-05-05T19:54:38.716Z,13.40
2023-05-05T19:59:00.832Z,12.90
2023-05-05T20:03:03.173Z,13.00
2023-05-05T20:07:05.351Z,13.30
2023-05-05T20:11:07.456Z,13.40
2023-05-05T20:15:11.296Z,13.50
2023-05-05T20:19:13.612Z,13.60
2023-05-05T20:23:15.776Z,13.70
2023-05-05T20:27:17.908Z,13.70
2023-05-05T20:31:20.169Z,13.70
2023-05-05T20:35:22.418Z,13.80
2023-05-05T20:39:24.308Z,13.80
2023-05-05T20:43:26.428Z,13.20
2023-05-05T20:47:28.516Z,12.90
2023-05-05T20:51:34.229Z,12.90
2023-05-05T20:55:36.644Z,13.10
2023-05-05T20:59:38.634Z,12.90
2023-05-05T21:03:40.594Z,13.00
2023-05-05T21:07:42.577Z,12.80
2023-05-05T21:11:44.336Z,12.90
2023-05-05T21:15:46.129Z,12.80
2023-05-05T21:19:48.334Z,12.90
2023-05-05T21:23:50.769Z,13.00
2023-05-05T21:27:53.167Z,13.10
2023-05-05T21:31:55.150Z,12.90
2023-05-05T21:35:57.383Z,13.20
2023-05-05T21:39:59.276Z,13.10
2023-05-05T21:44:01.458Z,12.70
2023-05-05T21:48:03.791Z,12.60
2023-05-05T21:52:05.826Z,12.90
2023-05-05T21:56:10.595Z,13.20
2023-05-05T22:00:16.719Z,13.30
2023-05-05T22:04:18.923Z,13.40
2023-05-05T22:08:21.160Z,13.20
2023-05-05T22:12:23.242Z,13.10
2023-05-05T22:16:25.632Z,13.20
2023-05-05T22:20:28.830Z,13.20
2023-05-05T22:24:31.056Z,13.30
2023-05-05T22:28:33.191Z,13.30
2023-05-05T22:32:35.296Z,13.30
2023-05-05T22:36:37.139Z,13.00
2023-05-05T22:40:39.309Z,12.90
2023-05-05T22:44:41.311Z,12.90
2023-05-05T22:48:43.427Z,13.00
2023-05-05T22:52:45.393Z,13.10
2023-05-05T22:56:47.497Z,13.20
2023-05-05T23:00:49.458Z,13.30
2023-05-05T23:04:52.652Z,13.20
2023-05-05T23:08:54.844Z,12.50
2023-05-05T23:12:56.663Z,11.80
2023-05-05T23:16:58.774Z,11.40
2023-05-05T23:21:01.273Z,11.90
2023-05-05T23:25:03.306Z,12.40
2023-05-05T23:29:05.971Z,12.70
2023-05-05T23:33:08.021Z,12.90
2023-05-05T23:37:10.415Z,13.00
2023-05-05T23:41:12.188Z,13.10
2023-05-05T23:45:14.316Z,13.10
2023-05-05T23:49:16.219Z,13.20
2023-05-05T23:53:18.433Z,13.20
2023-05-05T23:57:20.753Z,13.10
